Terminal Aerodrome Forecast
Issued by NWS

Home | Current Version | Previous Version | Text Only | Print | Product List | Glossary On
Versions: 1 2 3 4 5 6 7 8 9 10 11 12 13 14 15 16 17 18
000
FTUS43 KDMX 011732
TAFOTM
TAF
KOTM 011732Z 0118/0218 33006KT P6SM OVC015
     FM020300 01004KT P6SM BKN035
     FM020800 VRB03KT 3SM BR BKN015
     FM021200 36004KT 2SM BR BKN005
     FM021400 01004KT 3SM BR BKN010
     FM021600 36004KT P6SM BKN020=

USA.gov is the U.S. government's official web portal to all federal, state and local government web resources and services.